Time;durP1;ratioP1;P1;durP2;ratioP2;P2;SDS_P1;SDS_P2;PMS_P1;PMS_P2;Temp;Humidity;BMP_temperature;BMP_pressure;BME280_temperature;BME280_humidity;BME280_pressure;Samples;Min_cycle;Max_cycle;Signal;HPM_P1;HPM_P2
2022/07/05 00:03:34;;;;;;;8.15;6.00;;;;;;;17.87;85.71;99466.81;8367598;28;20049;-76
2022/07/05 00:07:35;;;;;;;9.65;5.80;;;;;;;17.89;85.68;99480.94;8367718;28;20501;-75
2022/07/05 00:11:36;;;;;;;7.38;5.85;;;;;;;17.90;85.78;99485.28;8367496;28;20116;-76
2022/07/05 00:15:37;;;;;;;8.05;5.60;;;;;;;17.94;85.53;99483.44;8367193;28;20123;-76
2022/07/05 00:19:38;;;;;;;8.18;6.47;;;;;;;17.99;85.50;99474.19;8366860;28;20059;-76
2022/07/05 00:23:39;;;;;;;10.50;6.15;;;;;;;18.03;85.77;99464.94;8362447;28;20045;-76
2022/07/05 00:27:41;;;;;;;9.38;7.43;;;;;;;18.07;85.83;99465.03;8363719;28;20464;-75
2022/07/05 00:31:42;;;;;;;7.28;6.30;;;;;;;18.10;85.79;99454.19;8366481;28;20546;-75
2022/07/05 00:35:43;;;;;;;11.20;6.63;;;;;;;18.10;86.20;99458.88;8366035;28;20044;-75
2022/07/05 00:39:44;;;;;;;8.23;6.63;;;;;;;18.00;86.63;99460.19;8359962;28;20436;-75
2022/07/05 00:43:55;;;;;;;11.23;6.95;;;;;;;18.02;86.26;99457.91;8360824;28;20524;-75
2022/07/05 00:47:56;;;;;;;12.70;6.60;;;;;;;18.03;86.52;99454.00;8314499;28;20132;-75
2022/07/05 00:51:59;;;;;;;7.63;6.30;;;;;;;18.04;86.68;99449.34;8352005;28;20045;-75
2022/07/05 00:56:00;;;;;;;10.32;6.30;;;;;;;18.05;86.70;99450.94;8302708;28;20072;-74
2022/07/05 01:00:01;;;;;;;9.00;6.40;;;;;;;18.04;87.04;99443.88;8349856;28;20459;-76
2022/07/05 01:04:02;;;;;;;8.48;6.07;;;;;;;18.03;86.96;99448.53;8365766;28;20041;-75
2022/07/05 01:08:04;;;;;;;7.10;6.40;;;;;;;18.03;86.89;99454.00;8347100;28;20045;-75
2022/07/05 01:12:06;;;;;;;7.95;6.20;;;;;;;17.98;87.16;99459.72;8344504;28;20049;-75
2022/07/05 01:16:07;;;;;;;8.82;6.20;;;;;;;17.98;87.06;99462.44;8352877;28;20049;-75
2022/07/05 01:20:08;;;;;;;10.73;6.45;;;;;;;17.96;87.34;99459.28;8305150;28;20409;-75
2022/07/05 01:24:12;;;;;;;15.48;6.30;;;;;;;17.94;87.55;99453.38;8356196;28;20056;-75
2022/07/05 01:28:13;;;;;;;7.75;6.07;;;;;;;17.92;87.56;99458.41;8347766;28;20053;-75
2022/07/05 01:32:15;;;;;;;7.95;5.75;;;;;;;17.89;87.82;99450.09;8365444;28;20110;-76
2022/07/05 01:36:15;;;;;;;14.02;7.10;;;;;;;17.91;87.94;99440.41;8364798;28;20128;-76
2022/07/05 01:40:18;;;;;;;9.05;6.75;;;;;;;17.95;87.84;99435.84;8311583;28;20057;-76
2022/07/05 01:44:19;;;;;;;6.97;6.28;;;;;;;17.99;87.82;99447.66;8358408;28;20067;-75
2022/07/05 01:48:21;;;;;;;8.63;7.30;;;;;;;17.96;87.67;99448.38;8338427;28;20029;-75
2022/07/05 01:52:22;;;;;;;9.82;7.28;;;;;;;17.88;87.89;99452.03;8363801;28;20056;-76
2022/07/05 01:56:23;;;;;;;10.68;7.00;;;;;;;17.89;88.01;99452.81;8338510;28;20053;-76
2022/07/05 02:00:24;;;;;;;9.13;6.50;;;;;;;17.87;87.73;99455.91;8343774;28;20045;-75
2022/07/05 02:04:28;;;;;;;11.13;7.30;;;;;;;17.89;88.10;99448.16;8359930;28;20072;-75
2022/07/05 02:08:30;;;;;;;8.90;6.18;;;;;;;17.84;88.50;99448.41;8350877;28;20049;-75
2022/07/05 02:12:32;;;;;;;10.27;7.05;;;;;;;17.83;88.60;99455.00;8337003;28;20554;-76
2022/07/05 02:16:33;;;;;;;10.27;7.50;;;;;;;17.84;89.23;99466.75;8363311;28;20051;-75
2022/07/05 02:20:35;;;;;;;11.10;7.55;;;;;;;17.74;89.19;99465.31;8345784;28;20041;-75
2022/07/05 02:24:36;;;;;;;12.13;7.63;;;;;;;17.68;89.22;99469.41;8359602;28;20523;-76
2022/07/05 02:28:37;;;;;;;12.82;7.97;;;;;;;17.65;89.21;99464.66;8361712;28;20105;-76
2022/07/05 02:32:38;;;;;;;12.35;8.65;;;;;;;17.74;88.78;99462.56;8349388;28;20059;-76
2022/07/05 02:36:39;;;;;;;15.60;8.65;;;;;;;17.78;88.70;99477.13;8354088;28;20133;-75
2022/07/05 02:40:40;;;;;;;10.75;8.02;;;;;;;17.74;88.93;99473.50;8353711;28;20045;-75
2022/07/05 02:44:41;;;;;;;11.02;8.45;;;;;;;17.77;89.12;99472.78;8351758;28;20184;-75
2022/07/05 02:48:42;;;;;;;10.45;8.35;;;;;;;17.74;89.02;99473.50;8353611;28;20045;-75
2022/07/05 02:52:43;;;;;;;12.18;8.82;;;;;;;17.73;89.43;99471.91;8350373;28;20050;-75
2022/07/05 02:56:44;;;;;;;15.63;8.93;;;;;;;17.73;89.75;99466.44;8350321;28;20050;-75
2022/07/05 03:00:45;;;;;;;12.38;9.00;;;;;;;17.75;89.67;99469.63;8360520;28;20095;-75
2022/07/05 03:04:46;;;;;;;10.05;8.13;;;;;;;17.74;89.51;99476.22;8343341;28;20049;-75
2022/07/05 03:08:47;;;;;;;9.70;8.32;;;;;;;17.77;89.51;99482.91;8356003;28;20064;-75
2022/07/05 03:12:48;;;;;;;10.85;9.02;;;;;;;17.80;89.54;99493.97;8356836;28;20045;-75
2022/07/05 03:16:49;;;;;;;11.00;9.05;;;;;;;17.80;89.93;99488.50;8348208;28;20038;-75
2022/07/05 03:20:50;;;;;;;12.48;8.85;;;;;;;17.81;89.85;99490.09;8289953;28;20088;-75
2022/07/05 03:24:51;;;;;;;11.23;9.80;;;;;;;17.83;89.86;99482.34;8351551;28;20062;-76
2022/07/05 03:28:52;;;;;;;10.63;9.15;;;;;;;17.88;90.02;99484.81;8357154;28;20084;-75
2022/07/05 03:32:53;;;;;;;17.48;10.20;;;;;;;17.84;90.50;99483.94;8354433;28;20056;-76
2022/07/05 03:36:54;;;;;;;20.85;10.13;;;;;;;17.85;90.21;99491.00;8364223;28;20136;-76
2022/07/05 03:40:55;;;;;;;16.30;10.30;;;;;;;17.86;91.04;99498.03;8364853;28;20049;-75
2022/07/05 03:44:56;;;;;;;13.88;9.73;;;;;;;17.79;91.82;99525.16;8359183;28;20385;-76
2022/07/05 03:48:57;;;;;;;14.85;8.95;;;;;;;17.76;92.05;99514.94;8364691;28;20358;-76
2022/07/05 03:52:58;;;;;;;10.63;9.00;;;;;;;17.76;92.15;99514.94;8365984;28;20049;-76
2022/07/05 03:56:59;;;;;;;14.30;9.88;;;;;;;17.78;92.03;99518.09;8365711;28;20469;-76
2022/07/05 04:01:00;;;;;;;17.38;10.15;;;;;;;17.80;91.92;99521.28;8363350;28;20187;-76
2022/07/05 04:05:01;;;;;;;14.10;10.70;;;;;;;17.82;91.79;99529.13;8354965;28;20459;-76
2022/07/05 04:09:02;;;;;;;11.35;9.38;;;;;;;17.78;93.04;99539.94;8364664;28;20194;-75
2022/07/05 04:13:03;;;;;;;14.38;9.65;;;;;;;17.70;93.34;99543.63;8365026;28;20053;-76
2022/07/05 04:17:04;;;;;;;12.38;9.40;;;;;;;17.69;93.15;99547.50;8342060;28;20051;-76
2022/07/05 04:21:05;;;;;;;15.70;9.80;;;;;;;17.64;93.53;99562.19;8365832;28;20044;-75
2022/07/05 04:25:19;;;;;;;14.02;9.90;;;;;;;17.59;94.24;99564.31;8344499;28;20076;-76
2022/07/05 04:29:20;;;;;;;13.70;10.60;;;;;;;17.53;94.44;99571.16;8366089;28;20041;-76
2022/07/05 04:33:21;;;;;;;15.70;10.90;;;;;;;17.58;94.34;99562.72;8348243;28;20041;-75
2022/07/05 04:37:22;;;;;;;13.45;9.85;;;;;;;17.59;94.69;99575.25;8353256;28;20041;-76
2022/07/05 04:41:23;;;;;;;16.15;11.30;;;;;;;17.52;95.08;99584.00;8366796;28;20467;-76
2022/07/05 04:45:24;;;;;;;15.88;12.13;;;;;;;17.51;95.06;99584.34;8332121;28;20056;-77
2022/07/05 04:49:24;;;;;;;15.13;11.55;;;;;;;17.55;95.52;99585.28;8366582;28;20058;-75
2022/07/05 04:53:26;;;;;;;18.05;12.93;;;;;;;17.55;95.37;99577.09;8361494;28;20496;-77
2022/07/05 04:57:27;;;;;;;16.92;12.15;;;;;;;17.59;95.26;99580.72;8357357;28;20088;-76
2022/07/05 05:01:29;;;;;;;23.45;12.77;;;;;;;17.58;95.41;99590.03;8348467;28;20045;-76
2022/07/05 05:05:29;;;;;;;16.83;12.88;;;;;;;17.60;95.30;99594.06;8366074;28;20041;-77
2022/07/05 05:09:30;;;;;;;19.70;13.68;;;;;;;17.62;95.44;99580.03;8358551;28;20074;-76
2022/07/05 05:13:31;;;;;;;21.85;13.40;;;;;;;17.65;95.56;99591.09;8357517;28;20124;-76
2022/07/05 05:17:40;;;;;;;15.75;12.60;;;;;;;17.66;95.92;99581.72;8309845;28;20045;-76
2022/07/05 05:21:40;;;;;;;14.17;12.70;;;;;;;17.67;95.73;99588.00;8356699;28;20057;-77
2022/07/05 05:25:42;;;;;;;16.48;13.15;;;;;;;17.72;96.30;99593.22;8365512;28;20338;-77
2022/07/05 05:29:42;;;;;;;16.90;13.05;;;;;;;17.75;96.22;99589.81;8364699;28;20053;-76
2022/07/05 05:33:43;;;;;;;15.10;12.52;;;;;;;17.77;95.86;99587.53;8302346;28;20076;-76
2022/07/05 05:37:46;;;;;;;17.45;13.18;;;;;;;17.79;96.14;99579.78;8364348;28;20455;-77
2022/07/05 05:41:47;;;;;;;18.25;13.68;;;;;;;17.79;96.04;99579.00;8356191;28;20474;-76
2022/07/05 05:45:48;;;;;;;14.70;12.95;;;;;;;17.82;96.22;99579.09;8364578;28;20045;-77
2022/07/05 05:49:49;;;;;;;17.08;14.00;;;;;;;17.90;96.04;99586.38;8313184;28;20454;-77
2022/07/05 05:53:50;;;;;;;16.13;12.65;;;;;;;17.93;96.21;99585.66;8342867;28;20103;-77
2022/07/05 05:57:52;;;;;;;16.10;12.10;;;;;;;18.00;95.86;99596.81;8332340;28;20056;-77
2022/07/05 06:01:53;;;;;;;14.80;12.27;;;;;;;17.96;95.96;99585.00;8357748;28;20448;-77
2022/07/05 06:05:54;;;;;;;16.23;12.02;;;;;;;17.94;96.31;99587.25;8364064;28;20076;-77
2022/07/05 06:09:55;;;;;;;15.27;12.52;;;;;;;17.83;97.79;99591.59;8364656;28;20049;-77
2022/07/05 06:13:56;;;;;;;17.42;12.85;;;;;;;17.86;97.83;99596.41;8363883;28;20044;-77
2022/07/05 06:17:57;;;;;;;16.08;13.20;;;;;;;17.87;97.92;99603.44;8363789;28;20049;-77
2022/07/05 06:21:58;;;;;;;20.38;14.75;;;;;;;17.94;97.75;99622.78;8336272;28;20058;-77
2022/07/05 06:25:59;;;;;;;22.75;14.43;;;;;;;18.01;97.91;99612.06;8360043;28;20049;-77
2022/07/05 06:30:00;;;;;;;17.33;13.93;;;;;;;18.03;97.84;99601.56;8351799;28;20045;-76
2022/07/05 06:34:01;;;;;;;17.35;14.20;;;;;;;18.03;98.07;99600.81;8349779;28;20458;-77
2022/07/05 06:38:07;;;;;;;26.88;16.50;;;;;;;18.12;97.70;99610.44;8363703;28;20411;-77
2022/07/05 06:42:08;;;;;;;17.67;14.50;;;;;;;18.12;97.49;99610.44;8363520;28;20124;-76
2022/07/05 06:46:09;;;;;;;17.65;14.55;;;;;;;18.10;97.86;99618.19;8345921;28;20045;-77
2022/07/05 06:50:12;;;;;;;19.38;17.15;;;;;;;18.09;97.65;99616.59;8320800;28;20067;-77
2022/07/05 06:54:14;;;;;;;23.10;17.83;;;;;;;18.09;97.62;99611.13;8357362;28;20053;-76
2022/07/05 06:58:14;;;;;;;21.48;14.93;;;;;;;18.09;97.52;99616.59;8350344;28;20547;-78
2022/07/05 07:02:16;;;;;;;24.30;14.15;;;;;;;18.09;97.32;99611.13;8365500;28;20491;-76
2022/07/05 07:06:18;;;;;;;17.77;13.23;;;;;;;18.11;97.09;99619.78;8355227;28;20509;-77
2022/07/05 07:10:19;;;;;;;16.75;14.23;;;;;;;18.10;97.25;99623.66;8366344;28;20432;-78
2022/07/05 07:14:20;;;;;;;22.60;13.77;;;;;;;18.08;97.33;99625.94;8369621;28;20041;-78
2022/07/05 07:18:21;;;;;;;16.67;13.43;;;;;;;18.05;97.51;99632.09;8355223;28;20045;-78
2022/07/05 07:22:22;;;;;;;18.13;12.52;;;;;;;17.97;98.16;99641.25;8317207;28;20071;-75
2022/07/05 07:26:24;;;;;;;21.42;12.57;;;;;;;17.91;98.58;99650.81;8313894;28;20045;-77
2022/07/05 07:30:27;;;;;;;17.48;13.40;;;;;;;17.95;98.61;99654.44;8294415;28;20144;-76
2022/07/05 07:34:29;;;;;;;19.25;11.98;;;;;;;17.97;99.30;99668.56;8298207;28;20046;-76
2022/07/05 07:38:30;;;;;;;17.83;12.55;;;;;;;17.91;99.94;99667.22;8297953;28;20141;-75
2022/07/05 07:42:31;;;;;;;16.35;12.75;;;;;;;17.93;99.75;99667.63;8298140;28;20073;-75
2022/07/05 07:46:33;;;;;;;13.70;11.95;;;;;;;18.00;99.37;99673.34;8295270;28;20062;-75
2022/07/05 07:50:35;;;;;;;19.65;13.20;;;;;;;18.04;99.35;99663.31;8293974;28;20494;-76
2022/07/05 07:54:37;;;;;;;14.90;10.50;;;;;;;18.09;98.97;99670.47;8297627;28;20046;-75
2022/07/05 07:58:38;;;;;;;15.07;12.52;;;;;;;18.12;99.13;99681.53;8297825;28;20189;-75
2022/07/05 08:02:39;;;;;;;14.95;10.82;;;;;;;18.14;98.64;99679.22;8364898;28;20041;-75
2022/07/05 08:06:41;;;;;;;17.05;11.65;;;;;;;18.21;98.39;99677.84;8361765;28;20063;-75
2022/07/05 08:10:42;;;;;;;12.70;8.60;;;;;;;18.17;98.18;99676.94;8348911;28;20049;-76
2022/07/05 08:14:43;;;;;;;12.50;7.53;;;;;;;18.12;98.02;99670.59;8305653;28;20049;-76
2022/07/05 08:23:04;;;;;;;9.27;7.68;;;;;;;18.09;97.27;99679.47;8349188;28;20128;-76
2022/07/05 08:27:05;;;;;;;11.98;7.68;;;;;;;18.13;97.19;99691.31;8360746;28;20099;-76
2022/07/05 08:31:06;;;;;;;10.50;7.53;;;;;;;18.15;96.93;99680.81;8366488;28;20111;-75
2022/07/05 08:35:07;;;;;;;8.38;6.75;;;;;;;18.12;96.76;99676.06;8364511;28;20492;-75
2022/07/05 08:39:09;;;;;;;10.05;7.30;;;;;;;18.06;97.17;99677.44;8315918;28;20411;-76
2022/07/05 08:43:10;;;;;;;9.77;8.15;;;;;;;18.10;97.21;99672.84;8363446;28;20049;-76
2022/07/05 08:47:12;;;;;;;9.98;8.77;;;;;;;18.09;97.22;99665.00;8347834;28;20419;-77
2022/07/05 08:51:20;;;;;;;17.30;12.65;;;;;;;18.06;97.63;99661.03;8348091;28;20098;-77
2022/07/05 08:55:22;;;;;;;;;;;;;;;18.05;97.52;99659.44;8353650;28;20049;-76
2022/07/05 09:12:34;;;;;;;11.45;7.65;;;;;;;18.19;99.71;99669.22;8457491;27;20388;-84
2022/07/05 09:16:35;;;;;;;10.68;7.97;;;;;;;18.30;98.93;99653.88;8434963;28;20063;-85
2022/07/05 09:20:36;;;;;;;8.43;6.72;;;;;;;18.31;97.79;99663.69;8425817;28;20047;-86
2022/07/05 09:24:44;;;;;;;9.27;8.07;;;;;;;18.25;97.55;99673.28;8415096;28;20123;-85
2022/07/05 09:28:54;;;;;;;10.90;8.95;;;;;;;18.27;97.78;99668.25;8428902;28;20558;-85
2022/07/05 09:33:02;;;;;;;8.68;6.63;;;;;;;18.34;97.01;99665.75;8398640;28;20049;-85
2022/07/05 09:37:04;;;;;;;9.07;6.73;;;;;;;18.38;96.48;99677.56;8424438;28;20036;-86
2022/07/05 09:41:11;;;;;;;10.18;6.65;;;;;;;18.35;95.47;99678.25;8420024;28;20041;-84
2022/07/05 09:45:13;;;;;;;8.10;6.88;;;;;;;18.29;95.67;99679.66;8423496;28;20044;-85
2022/07/05 09:49:25;;;;;;;9.18;6.97;;;;;;;18.39;95.53;99690.13;8410846;28;20422;-84
2022/07/05 09:53:44;;;;;;;7.75;6.10;;;;;;;18.31;94.46;99683.63;8393472;28;20055;-85
2022/07/05 09:57:50;;;;;;;;;;;;;;;18.26;93.99;99680.34;8430391;28;20178;-85
2022/07/05 10:01:51;;;;;;;9.63;7.18;;;;;;;18.24;94.30;99677.16;8374553;28;20295;-85
2022/07/05 10:05:53;;;;;;;9.00;7.38;;;;;;;18.30;93.97;99678.50;8425001;28;20749;-85
2022/07/05 10:09:54;;;;;;;10.73;7.43;;;;;;;18.35;93.88;99678.25;8428998;28;20072;-85
2022/07/05 10:13:55;;;;;;;9.75;6.80;;;;;;;18.40;93.76;99686.25;8381204;28;20037;-85
2022/07/05 10:18:08;;;;;;;11.65;6.35;;;;;;;18.48;94.10;99677.09;8404229;28;20094;-86
2022/07/05 10:22:11;;;;;;;5.20;4.38;;;;;;;18.42;93.96;99683.94;8369040;28;20047;-86
2022/07/05 10:26:13;;;;;;;13.40;5.10;;;;;;;18.41;93.37;99682.34;8399887;28;20045;-86
2022/07/05 10:30:16;;;;;;;7.40;4.90;;;;;;;18.49;92.92;99673.22;8390899;28;20044;-85
2022/07/05 10:34:19;;;;;;;12.48;6.00;;;;;;;18.57;92.76;99669.56;8395634;28;20054;-84
2022/07/05 10:38:21;;;;;;;8.88;6.30;;;;;;;18.63;92.83;99668.16;8390198;28;20055;-85
2022/07/05 10:42:23;;;;;;;7.30;6.00;;;;;;;18.86;92.24;99666.47;8381677;28;20041;-84
2022/07/05 10:46:38;;;;;;;9.23;4.43;;;;;;;19.00;91.30;99666.06;8343551;28;20047;-86
2022/07/05 10:50:45;;;;;;;6.13;4.25;;;;;;;19.13;90.32;99675.00;8419751;28;20056;-85
2022/07/05 10:55:25;;;;;;;6.00;4.43;;;;;;;19.09;89.37;99679.59;8415687;28;20067;-84
2022/07/05 10:59:28;;;;;;;9.25;3.72;;;;;;;19.15;89.04;99673.47;8394371;28;20045;-84
2022/07/05 11:03:38;;;;;;;6.15;3.78;;;;;;;19.07;88.75;99670.91;8377874;28;20049;-84
2022/07/05 11:07:58;;;;;;;8.68;4.25;;;;;;;18.97;88.75;99662.09;8413689;28;20041;-85
2022/07/05 11:12:04;;;;;;;7.35;4.63;;;;;;;19.13;89.55;99661.31;8411704;28;20121;-84
2022/07/05 11:16:23;;;;;;;5.32;4.57;;;;;;;19.27;89.62;99653.44;8399008;28;20123;-84
2022/07/05 11:20:28;;;;;;;;;;;;;;;19.47;88.50;99663.38;8391527;28;20036;-84
2022/07/05 11:24:40;;;;;;;8.70;4.93;;;;;;;19.51;88.53;99664.25;8377654;28;19999;-85
2022/07/05 11:28:46;;;;;;;6.65;4.85;;;;;;;19.43;88.84;99667.94;8363817;28;20571;-85
2022/07/05 11:32:47;;;;;;;9.63;5.00;;;;;;;19.32;88.92;99664.13;8386938;28;20404;-84
2022/07/05 11:37:24;;;;;;;9.05;5.93;;;;;;;19.27;89.03;99664.41;8385320;28;20378;-84
2022/07/05 11:41:31;;;;;;;11.00;5.90;;;;;;;19.35;89.19;99655.22;8375651;28;20048;-84
2022/07/05 11:45:33;;;;;;;7.78;6.20;;;;;;;19.42;88.56;99652.66;8381881;28;20086;-84
2022/07/05 11:49:34;;;;;;;6.88;6.15;;;;;;;19.51;88.87;99658.75;8369341;28;20056;-84
2022/07/05 11:53:37;;;;;;;9.57;5.80;;;;;;;19.50;89.14;99657.19;8390432;28;20045;-84
2022/07/05 11:57:50;;;;;;;10.07;7.03;;;;;;;19.58;89.03;99655.41;8383411;28;20067;-84
2022/07/05 12:01:52;;;;;;;9.43;6.50;;;;;;;19.59;88.70;99660.53;8388615;28;20051;-84
2022/07/05 12:05:55;;;;;;;9.07;7.00;;;;;;;19.70;89.05;99656.09;8366298;28;20040;-83
2022/07/05 12:14:20;;;;;;;10.60;7.10;;;;;;;19.99;87.86;99656.75;8346028;28;20045;-84
2022/07/05 12:32:11;;;;;;;9.40;5.63;;;;;;;21.02;86.48;99648.69;8393335;27;20456;-75
2022/07/05 12:36:18;;;;;;;8.10;5.80;;;;;;;21.61;84.68;99655.59;8323162;28;20095;-73
2022/07/05 12:40:22;;;;;;;4.38;3.97;;;;;;;21.81;82.51;99651.56;8332580;28;20049;-72
2022/07/05 12:44:23;;;;;;;5.55;4.05;;;;;;;21.61;79.40;99658.34;8322077;28;20156;-73
2022/07/05 12:48:34;;;;;;;6.30;4.35;;;;;;;21.53;79.21;99651.13;8320854;28;20061;-73
2022/07/05 12:52:59;;;;;;;6.35;3.72;;;;;;;21.78;78.05;99652.34;8302617;28;20042;-73
2022/07/05 13:01:26;;;;;;;7.85;4.28;;;;;;;22.70;76.50;99637.03;8319215;28;20050;-73
2022/07/05 13:05:27;;;;;;;4.13;3.70;;;;;;;22.80;75.24;99639.13;8318923;28;20447;-73
2022/07/05 13:09:28;;;;;;;8.60;3.00;;;;;;;23.17;74.53;99634.41;8303837;28;20049;-72
2022/07/05 13:13:29;;;;;;;6.57;3.05;;;;;;;23.30;71.25;99631.38;8373349;28;20545;-73
2022/07/05 13:17:30;;;;;;;4.80;3.30;;;;;;;23.31;70.62;99638.47;8386568;28;20051;-74
2022/07/05 13:21:31;;;;;;;5.47;2.85;;;;;;;23.41;70.26;99626.72;8395724;28;20045;-73
2022/07/05 13:25:32;;;;;;;4.20;2.70;;;;;;;23.56;70.11;99622.94;8382787;28;20052;-73
2022/07/05 13:29:33;;;;;;;6.22;2.72;;;;;;;23.65;69.78;99615.13;8381895;28;20385;-73
2022/07/05 13:33:34;;;;;;;6.68;2.17;;;;;;;23.66;67.30;99605.69;8359336;28;20052;-73
2022/07/05 13:37:35;;;;;;;5.93;2.25;;;;;;;23.80;67.04;99605.75;8377315;28;20447;-74
2022/07/05 13:41:37;;;;;;;3.65;1.92;;;;;;;24.95;62.06;99607.84;8356148;28;20048;-74
2022/07/05 13:45:39;;;;;;;4.00;1.83;;;;;;;26.56;58.12;99621.00;8364547;28;20055;-74
2022/07/05 13:49:42;;;;;;;3.25;1.60;;;;;;;27.83;53.95;99614.53;8340626;28;20504;-73
2022/07/05 13:53:43;;;;;;;4.70;1.80;;;;;;;27.88;51.75;99605.75;8360293;28;20060;-74
2022/07/05 13:57:45;;;;;;;2.58;2.00;;;;;;;28.46;50.66;99613.03;8360224;28;20052;-74
2022/07/05 14:01:46;;;;;;;3.58;1.73;;;;;;;29.40;49.06;99613.31;8363800;28;20041;-74
2022/07/05 14:05:49;;;;;;;2.05;1.60;;;;;;;29.60;47.96;99612.13;8356800;28;20083;-74
2022/07/05 14:09:49;;;;;;;4.50;1.60;;;;;;;29.12;46.70;99620.06;8352846;28;20058;-75
2022/07/05 14:13:51;;;;;;;10.57;1.60;;;;;;;29.64;43.84;99607.28;8358203;28;20049;-74
2022/07/05 14:17:52;;;;;;;4.07;1.70;;;;;;;30.85;41.70;99610.44;8358619;28;20073;-74
2022/07/05 14:21:53;;;;;;;3.33;1.60;;;;;;;31.86;40.81;99611.13;8361929;28;20041;-74
2022/07/05 14:25:54;;;;;;;4.80;1.75;;;;;;;31.66;40.31;99610.50;8364353;28;20041;-74
2022/07/05 14:29:55;;;;;;;3.42;1.80;;;;;;;31.00;41.24;99606.09;8358191;28;20103;-74
2022/07/05 14:33:56;;;;;;;2.15;1.50;;;;;;;29.91;43.07;99609.22;8356677;28;20476;-75
2022/07/05 14:37:58;;;;;;;4.55;1.45;;;;;;;28.85;44.53;99595.84;8349997;28;20080;-75
2022/07/05 14:41:59;;;;;;;1.88;1.30;;;;;;;29.72;43.83;99602.38;8354158;28;20510;-73
2022/07/05 14:46:00;;;;;;;4.30;1.50;;;;;;;30.66;40.81;99608.50;8354302;28;20507;-73
2022/07/05 14:50:01;;;;;;;3.00;1.50;;;;;;;30.89;39.66;99605.56;8325476;28;20064;-74
2022/07/05 14:54:02;;;;;;;3.83;1.48;;;;;;;30.92;38.89;99602.69;8357276;28;20128;-75
2022/07/05 14:58:03;;;;;;;3.08;1.80;;;;;;;31.05;38.92;99594.44;8353371;28;20044;-74
2022/07/05 15:02:05;;;;;;;2.17;1.35;;;;;;;31.27;38.26;99592.69;8348878;28;20131;-75
2022/07/05 15:06:08;;;;;;;4.18;2.05;;;;;;;30.58;39.19;99596.69;8360429;28;20191;-75
2022/07/05 15:10:10;;;;;;;2.67;1.38;;;;;;;30.28;39.80;99594.94;8361167;28;20061;-74
2022/07/05 15:14:11;;;;;;;2.65;1.40;;;;;;;30.40;39.55;99591.50;8359587;28;20358;-75
2022/07/05 15:18:12;;;;;;;1.50;1.33;;;;;;;29.91;41.46;99586.94;8363826;28;20040;-74
2022/07/05 15:22:14;;;;;;;3.55;1.48;;;;;;;30.36;41.16;99587.97;8346390;28;20080;-75
2022/07/05 15:26:15;;;;;;;7.85;1.70;;;;;;;30.70;41.35;99582.09;8343766;28;20057;-75
2022/07/05 15:30:17;;;;;;;3.10;1.50;;;;;;;30.73;40.05;99577.66;8371393;28;20136;-75
2022/07/05 15:34:18;;;;;;;3.47;1.65;;;;;;;30.11;40.60;99568.22;8358140;28;20068;-75
2022/07/05 15:38:19;;;;;;;2.60;1.63;;;;;;;29.27;41.68;99565.78;8348853;28;20056;-75
2022/07/05 15:42:21;;;;;;;9.02;1.73;;;;;;;28.63;43.47;99572.31;8352743;28;20040;-75
2022/07/05 15:46:23;;;;;;;6.22;1.70;;;;;;;27.91;46.30;99571.66;8360827;28;20041;-75
2022/07/05 15:50:24;;;;;;;3.63;1.63;;;;;;;27.42;47.45;99566.56;8351352;28;20053;-74
2022/07/05 15:54:26;;;;;;;3.20;1.55;;;;;;;27.07;47.67;99567.69;8359117;28;20068;-75
2022/07/05 15:58:30;;;;;;;2.03;1.50;;;;;;;26.61;49.14;99562.41;8343834;28;20590;-74
2022/07/05 16:02:31;;;;;;;3.60;1.48;;;;;;;26.15;49.56;99568.97;8336329;28;20091;-72
2022/07/05 16:06:33;;;;;;;4.00;1.80;;;;;;;25.78;50.24;99555.66;8340780;28;20090;-73
2022/07/05 16:10:33;;;;;;;3.78;1.80;;;;;;;25.68;50.99;99544.63;8332801;28;20111;-73
2022/07/05 16:14:35;;;;;;;4.20;1.50;;;;;;;25.53;52.05;99566.75;8328247;28;20127;-72
2022/07/05 16:18:37;;;;;;;4.20;1.55;;;;;;;25.34;52.21;99558.88;8332715;28;20053;-73
2022/07/05 16:22:38;;;;;;;1.77;1.52;;;;;;;25.22;53.78;99556.53;8328028;28;20081;-73
2022/07/05 16:26:41;;;;;;;1.90;1.70;;;;;;;25.08;54.28;99556.50;8331779;28;20041;-72
2022/07/05 16:30:42;;;;;;;3.50;1.85;;;;;;;24.90;53.97;99555.72;8372972;28;20037;-73
2022/07/05 16:34:43;;;;;;;5.25;2.10;;;;;;;24.76;55.46;99548.97;8348541;28;20049;-72
2022/07/05 16:50:21;;;;;;;4.32;1.90;;;;;;;24.10;60.12;99552.31;8377295;27;2559648;-76
2022/07/05 16:54:22;;;;;;;3.50;2.33;;;;;;;23.79;60.45;99554.56;8455130;28;20040;-75
2022/07/05 16:58:23;;;;;;;5.13;2.25;;;;;;;23.60;60.90;99546.56;8451865;28;20082;-75
2022/07/05 17:02:25;;;;;;;3.47;2.35;;;;;;;23.51;62.27;99548.88;8445578;28;20055;-74
2022/07/05 17:06:26;;;;;;;5.28;2.17;;;;;;;23.43;63.28;99552.72;8456275;28;20055;-74
2022/07/05 17:10:27;;;;;;;2.47;2.20;;;;;;;23.30;64.02;99554.19;8437678;28;20569;-74
2022/07/05 17:14:28;;;;;;;9.93;2.47;;;;;;;23.21;65.18;99546.28;8456351;28;20106;-74
2022/07/05 17:18:29;;;;;;;3.80;2.00;;;;;;;23.03;65.31;99546.13;8452172;28;20051;-73
2022/07/05 17:22:30;;;;;;;4.95;2.17;;;;;;;22.96;65.83;99543.31;8427318;28;20420;-73
2022/07/05 17:26:31;;;;;;;4.78;2.22;;;;;;;22.92;66.53;99539.75;8456762;28;20056;-73
2022/07/05 17:30:32;;;;;;;7.13;2.55;;;;;;;22.88;66.86;99533.41;8456559;28;20127;-73
2022/07/05 17:34:34;;;;;;;6.22;2.05;;;;;;;22.81;66.43;99530.59;8456140;28;20043;-73
2022/07/05 17:38:35;;;;;;;3.05;2.17;;;;;;;22.76;66.37;99528.19;8447236;28;20035;-74
2022/07/05 17:42:36;;;;;;;2.55;2.35;;;;;;;22.63;66.55;99526.88;8454691;28;20048;-74
2022/07/05 17:46:37;;;;;;;10.68;2.80;;;;;;;22.50;67.08;99528.28;8446720;28;20090;-74
2022/07/05 17:50:38;;;;;;;4.20;2.03;;;;;;;22.39;67.69;99527.38;8432657;28;20574;-74
2022/07/05 17:54:39;;;;;;;4.18;2.50;;;;;;;22.28;68.01;99522.56;8421076;28;20052;-74
2022/07/05 17:58:42;;;;;;;6.72;3.03;;;;;;;22.20;68.97;99531.13;8422178;28;20051;-74
2022/07/05 18:02:43;;;;;;;7.80;2.70;;;;;;;22.05;68.50;99527.41;8405493;28;20051;-74
2022/07/05 18:06:44;;;;;;;7.25;2.67;;;;;;;21.95;68.79;99536.31;8432273;28;20097;-73
2022/07/05 18:10:45;;;;;;;9.50;3.20;;;;;;;21.81;68.96;99530.63;8424311;28;20051;-74
2022/07/05 18:14:46;;;;;;;6.35;4.00;;;;;;;21.70;69.46;99535.16;8430371;28;20091;-74
2022/07/05 18:18:48;;;;;;;18.58;10.23;;;;;;;21.58;69.70;99532.63;8411523;28;20134;-74
2022/07/05 18:22:49;;;;;;;11.70;6.25;;;;;;;21.43;70.10;99532.44;8428952;28;20055;-76
2022/07/05 18:26:51;;;;;;;145.85;96.28;;;;;;;21.24;70.41;99529.81;8431422;28;20143;-75
2022/07/05 18:30:52;;;;;;;69.78;47.00;;;;;;;21.07;70.97;99535.78;8431316;28;20047;-74
2022/07/05 18:34:52;;;;;;;174.43;106.25;;;;;;;20.99;71.85;99539.59;8425987;28;20055;-74
2022/07/05 18:38:53;;;;;;;93.47;57.10;;;;;;;20.90;72.43;99548.06;8394543;28;20045;-74
2022/07/05 18:42:55;;;;;;;72.50;45.20;;;;;;;20.78;73.51;99550.97;8426621;28;20432;-72
2022/07/05 18:46:56;;;;;;;48.65;32.15;;;;;;;20.65;74.19;99536.66;8428625;28;20067;-73
2022/07/05 18:50:57;;;;;;;16.08;9.45;;;;;;;20.50;74.74;99540.31;8427175;28;20059;-73
2022/07/05 18:54:58;;;;;;;24.75;14.45;;;;;;;20.37;75.44;99541.63;8423514;28;20154;-73
2022/07/05 18:58:59;;;;;;;39.83;25.02;;;;;;;20.24;75.90;99545.66;8427634;28;20388;-73
2022/07/05 19:03:00;;;;;;;34.08;21.83;;;;;;;20.12;76.37;99551.28;8421467;28;20036;-73
2022/07/05 19:15:40;;;;;;;17.52;9.75;;;;;;;19.63;77.88;99551.81;8420609;28;20626;-73
2022/07/05 19:19:41;;;;;;;20.48;11.07;;;;;;;19.52;78.42;99545.31;8410438;28;20044;-73
2022/07/05 19:23:42;;;;;;;20.77;13.23;;;;;;;19.38;78.66;99551.22;8420139;28;20399;-74
2022/07/05 19:27:43;;;;;;;20.67;9.30;;;;;;;19.21;79.33;99567.22;8416220;28;20167;-74
2022/07/05 19:31:44;;;;;;;18.05;8.93;;;;;;;19.12;79.26;99558.41;8405896;28;20048;-74
2022/07/05 19:35:46;;;;;;;21.38;9.23;;;;;;;18.99;79.46;99572.19;8425526;28;20043;-73
2022/07/05 19:39:48;;;;;;;11.25;8.10;;;;;;;18.89;79.70;99575.47;8421035;28;20495;-73
2022/07/05 19:43:50;;;;;;;21.50;6.28;;;;;;;18.76;80.04;99571.22;8355316;28;20059;-74
2022/07/05 19:48:11;;;;;;;15.02;6.85;;;;;;;18.57;80.25;99565.63;8422589;28;20143;-73
2022/07/05 19:52:12;;;;;;;20.25;9.88;;;;;;;18.44;80.42;99566.81;8344063;28;20053;-74